createdAt,value
2018-03-26T00:00:28.460Z,95.60
2018-03-26T00:02:55.947Z,95.30
2018-03-26T00:05:23.428Z,95.30
2018-03-26T00:07:50.912Z,95.40
2018-03-26T00:10:19.158Z,96.90
2018-03-26T00:12:46.670Z,96.90
2018-03-26T00:15:14.198Z,96.80
2018-03-26T00:17:41.679Z,96.70
2018-03-26T00:20:09.163Z,96.70
2018-03-26T00:22:36.655Z,97.30
2018-03-26T00:25:04.216Z,96.90
2018-03-26T00:27:31.698Z,96.90
2018-03-26T00:29:59.212Z,97.50
2018-03-26T00:32:26.688Z,97.30
2018-03-26T00:34:54.192Z,96.80
2018-03-26T00:37:21.672Z,96.70
2018-03-26T00:39:49.194Z,96.80
2018-03-26T00:42:16.744Z,97.00
2018-03-26T00:44:44.222Z,97.00
2018-03-26T00:47:11.705Z,97.10
2018-03-26T00:49:39.186Z,97.30
2018-03-26T00:52:06.668Z,97.40
2018-03-26T00:54:34.907Z,98.00
2018-03-26T00:57:02.449Z,98.00
2018-03-26T00:59:30.635Z,98.10
2018-03-26T01:01:58.158Z,98.10
2018-03-26T01:04:25.659Z,98.60
2018-03-26T01:06:53.155Z,98.90
2018-03-26T01:09:20.668Z,98.00
2018-03-26T01:11:48.157Z,99.10
2018-03-26T01:14:16.423Z,98.90
2018-03-26T01:16:44.673Z,98.80
2018-03-26T01:19:12.155Z,98.80
2018-03-26T01:21:39.665Z,98.90
2018-03-26T01:24:07.167Z,98.50
2018-03-26T01:26:34.647Z,98.90
2018-03-26T01:29:02.171Z,98.30
2018-03-26T01:31:29.648Z,97.90
2018-03-26T01:33:57.920Z,98.10
2018-03-26T01:36:26.196Z,98.10
2018-03-26T01:38:54.475Z,97.90
2018-03-26T01:41:22.723Z,98.60
2018-03-26T01:43:50.203Z,98.60
2018-03-26T01:46:18.475Z,98.50
2018-03-26T01:48:45.984Z,98.50
2018-03-26T01:51:13.500Z,98.60
2018-03-26T01:53:41.011Z,98.30
2018-03-26T01:56:08.486Z,99.10
2018-03-26T01:58:35.990Z,98.50
2018-03-26T02:01:03.497Z,99.20
2018-03-26T02:03:31.005Z,99.80
2018-03-26T02:05:58.515Z,98.70
2018-03-26T02:08:26.027Z,99.40
2018-03-26T02:10:53.502Z,99.30
2018-03-26T02:13:20.982Z,98.70
2018-03-26T02:15:48.495Z,99.00
2018-03-26T02:18:15.976Z,98.80
2018-03-26T02:20:43.467Z,98.70
2018-03-26T02:23:10.976Z,99.10
2018-03-26T02:25:38.495Z,99.50
2018-03-26T02:28:05.967Z,99.30
2018-03-26T02:30:33.483Z,99.00
2018-03-26T02:33:01.006Z,99.30
2018-03-26T02:35:28.479Z,99.70
2018-03-26T02:37:56.396Z,99.70
2018-03-26T02:40:23.867Z,99.40
2018-03-26T02:42:51.358Z,99.50
2018-03-26T02:45:18.839Z,99.30
2018-03-26T02:47:46.349Z,99.90
2018-03-26T02:50:13.853Z,99.30
2018-03-26T02:52:41.368Z,99.80
2018-03-26T02:55:08.889Z,99.80
2018-03-26T02:57:36.376Z,99.50
2018-03-26T03:00:03.854Z,99.80
2018-03-26T03:02:31.502Z,99.50
2018-03-26T03:04:59.004Z,99.70
2018-03-26T03:07:26.492Z,99.90
2018-03-26T03:09:53.972Z,99.50
2018-03-26T03:12:21.487Z,99.00
2018-03-26T03:14:48.964Z,99.00
2018-03-26T03:17:16.590Z,99.40
2018-03-26T03:19:44.108Z,99.70
2018-03-26T03:22:11.632Z,99.50
2018-03-26T03:24:39.132Z,99.80
2018-03-26T03:27:06.653Z,99.80
2018-03-26T03:29:34.928Z,99.70
2018-03-26T03:32:03.194Z,99.40
2018-03-26T03:34:30.689Z,99.30
2018-03-26T03:36:58.194Z,99.50
2018-03-26T03:39:25.685Z,99.30
2018-03-26T03:41:53.408Z,99.30
2018-03-26T03:44:21.824Z,99.90
2018-03-26T03:46:49.349Z,99.60
2018-03-26T03:49:16.861Z,99.80
2018-03-26T03:51:44.371Z,99.30
2018-03-26T03:54:11.893Z,99.70
2018-03-26T03:56:39.446Z,99.40
2018-03-26T03:59:06.944Z,99.90
2018-03-26T04:01:34.462Z,99.90
2018-03-26T04:04:01.947Z,99.40
2018-03-26T04:06:29.426Z,99.90
2018-03-26T04:08:56.916Z,99.90
2018-03-26T04:11:24.422Z,99.90
2018-03-26T04:13:51.904Z,99.70
2018-03-26T04:16:19.383Z,99.60
2018-03-26T04:18:46.904Z,99.80
2018-03-26T04:21:14.386Z,99.90
2018-03-26T04:23:42.659Z,99.60
2018-03-26T04:26:10.942Z,99.60
2018-03-26T04:28:39.180Z,99.90
2018-03-26T04:31:06.662Z,99.90
2018-03-26T04:33:34.322Z,99.90
2018-03-26T04:36:01.833Z,99.80
2018-03-26T04:38:29.344Z,99.90
2018-03-26T04:40:56.840Z,99.90
2018-03-26T04:43:24.360Z,99.90
2018-03-26T04:45:52.636Z,99.90
2018-03-26T04:48:20.916Z,99.90
2018-03-26T04:50:49.168Z,99.90
2018-03-26T04:53:16.644Z,99.90
2018-03-26T04:55:44.957Z,99.90
2018-03-26T04:58:12.459Z,99.90
2018-03-26T05:00:39.979Z,99.90
2018-03-26T05:03:07.477Z,99.90
2018-03-26T05:05:34.984Z,99.90
2018-03-26T05:08:02.464Z,99.90
2018-03-26T05:10:29.967Z,99.90
2018-03-26T05:12:58.260Z,99.90
2018-03-26T05:15:25.773Z,99.90
2018-03-26T05:17:53.252Z,99.90
2018-03-26T05:20:20.754Z,99.90
2018-03-26T05:22:48.318Z,99.90
2018-03-26T05:25:17.235Z,99.90
2018-03-26T05:27:44.716Z,99.90
2018-03-26T05:30:12.995Z,99.90
2018-03-26T05:32:41.239Z,99.90
2018-03-26T05:35:08.813Z,99.90
2018-03-26T05:37:36.317Z,99.90
2018-03-26T05:40:03.827Z,99.90
2018-03-26T05:42:31.356Z,99.90
2018-03-26T05:44:58.869Z,99.90
2018-03-26T05:47:26.400Z,99.90
2018-03-26T05:49:53.912Z,99.90
2018-03-26T05:52:21.390Z,99.90
2018-03-26T05:54:48.896Z,99.90
2018-03-26T05:57:16.413Z,99.90
2018-03-26T05:59:43.919Z,99.90
2018-03-26T06:02:12.233Z,99.90
2018-03-26T06:04:39.743Z,99.90
2018-03-26T06:07:07.248Z,99.90
2018-03-26T06:09:34.739Z,99.90
2018-03-26T06:12:02.252Z,99.90
2018-03-26T06:14:29.730Z,99.90
2018-03-26T06:17:08.844Z,99.90
2018-03-26T06:19:37.316Z,99.90
2018-03-26T06:22:05.246Z,99.90
2018-03-26T06:24:32.726Z,99.90
2018-03-26T06:27:00.240Z,99.90
2018-03-26T06:29:27.799Z,99.90
2018-03-26T06:31:55.315Z,99.90
2018-03-26T06:34:22.982Z,99.90
2018-03-26T06:37:09.300Z,99.90
2018-03-26T06:39:36.817Z,99.90
2018-03-26T06:42:04.375Z,99.90
2018-03-26T06:44:31.895Z,99.90
2018-03-26T06:46:59.386Z,99.90
2018-03-26T06:49:27.635Z,99.90
2018-03-26T06:51:55.156Z,99.90
2018-03-26T06:54:22.666Z,99.90
2018-03-26T06:56:50.177Z,99.90
2018-03-26T06:59:17.685Z,99.90
2018-03-26T07:01:45.968Z,99.90
2018-03-26T07:04:14.247Z,99.90
2018-03-26T07:06:41.789Z,99.90
2018-03-26T07:09:09.255Z,99.90
2018-03-26T07:11:36.761Z,99.90
2018-03-26T07:14:04.240Z,99.90
2018-03-26T07:16:31.729Z,99.90
2018-03-26T07:18:59.997Z,99.90
2018-03-26T07:21:28.285Z,99.90
2018-03-26T07:23:55.781Z,99.90
2018-03-26T07:26:23.267Z,99.90
2018-03-26T07:28:50.791Z,99.90
2018-03-26T07:31:18.253Z,99.90
2018-03-26T07:33:45.780Z,99.90
2018-03-26T07:36:13.271Z,99.90
2018-03-26T07:38:40.780Z,99.90
2018-03-26T07:41:08.332Z,99.90
2018-03-26T07:43:36.612Z,99.90
2018-03-26T07:46:04.889Z,99.90
2018-03-26T07:48:33.164Z,99.90
2018-03-26T07:51:01.446Z,99.90
2018-03-26T07:53:29.700Z,99.90
2018-03-26T07:55:57.172Z,99.90
2018-03-26T07:58:25.461Z,99.90
2018-03-26T08:00:52.984Z,99.90
2018-03-26T08:03:20.495Z,99.90
2018-03-26T08:05:47.996Z,99.90
2018-03-26T08:08:15.484Z,99.90
2018-03-26T08:10:43.731Z,99.40
2018-03-26T08:13:11.217Z,99.40
2018-03-26T08:15:38.977Z,99.90
2018-03-26T08:18:06.468Z,99.90
2018-03-26T08:20:33.972Z,99.70
2018-03-26T08:23:01.510Z,99.60
2018-03-26T08:25:29.025Z,99.40
2018-03-26T08:27:56.544Z,99.90
2018-03-26T08:30:24.064Z,99.70
2018-03-26T08:32:52.375Z,99.70
2018-03-26T08:35:20.080Z,99.50
2018-03-26T08:37:47.588Z,99.90
2018-03-26T08:40:15.066Z,98.70
2018-03-26T08:42:43.320Z,98.70
2018-03-26T08:45:10.804Z,98.70
2018-03-26T08:47:39.065Z,98.20
2018-03-26T08:50:06.668Z,98.20
2018-03-26T08:52:34.137Z,99.40
2018-03-26T08:55:01.628Z,98.50
2018-03-26T08:57:29.132Z,98.60
2018-03-26T08:59:56.645Z,98.00
2018-03-26T09:02:24.130Z,98.40
2018-03-26T09:04:51.651Z,98.60
2018-03-26T09:07:19.142Z,98.30
2018-03-26T09:09:47.428Z,98.60
2018-03-26T09:12:15.699Z,98.40
2018-03-26T09:14:43.950Z,98.10
2018-03-26T09:17:11.460Z,98.10
2018-03-26T09:19:38.962Z,98.00
2018-03-26T09:22:06.441Z,97.70
2018-03-26T09:24:34.704Z,98.00
2018-03-26T09:27:02.949Z,97.30
2018-03-26T09:29:30.431Z,97.60
2018-03-26T09:31:57.912Z,97.40
2018-03-26T09:34:25.412Z,98.90
2018-03-26T09:36:52.907Z,97.60
2018-03-26T09:39:20.390Z,97.50
2018-03-26T09:41:48.640Z,97.40
2018-03-26T09:44:16.149Z,97.40
2018-03-26T09:46:43.636Z,96.50
2018-03-26T09:49:11.139Z,96.70
2018-03-26T09:51:38.634Z,97.00
2018-03-26T09:54:06.148Z,96.60
2018-03-26T09:56:33.687Z,95.70
2018-03-26T09:59:01.164Z,96.30
2018-03-26T10:01:32.627Z,96.60
2018-03-26T10:04:00.104Z,96.60
2018-03-26T10:06:27.594Z,95.90
2018-03-26T10:08:55.155Z,96.00
2018-03-26T10:11:22.726Z,95.50
2018-03-26T10:13:50.162Z,95.50
2018-03-26T10:16:17.689Z,95.30
2018-03-26T10:18:45.204Z,93.70
2018-03-26T10:21:12.720Z,93.40
2018-03-26T10:23:40.213Z,93.50
2018-03-26T10:26:08.458Z,93.40
2018-03-26T10:28:35.961Z,93.30
2018-03-26T10:31:03.462Z,92.70
2018-03-26T10:33:30.982Z,93.00
2018-03-26T10:35:59.252Z,91.60
2018-03-26T10:38:27.520Z,92.60
2018-03-26T10:40:55.815Z,92.50
2018-03-26T10:43:23.299Z,92.40
2018-03-26T10:45:50.814Z,92.70
2018-03-26T10:48:18.305Z,92.20
2018-03-26T10:50:45.823Z,91.80
2018-03-26T10:53:13.334Z,92.10
2018-03-26T10:55:40.813Z,91.20
2018-03-26T10:58:08.320Z,90.70
2018-03-26T11:00:35.831Z,90.50
2018-03-26T11:03:03.361Z,91.00
2018-03-26T11:05:30.885Z,90.30
2018-03-26T11:07:58.357Z,90.60
2018-03-26T11:10:25.863Z,90.10
2018-03-26T11:12:53.347Z,90.40
2018-03-26T11:15:21.602Z,89.80
2018-03-26T11:17:49.101Z,89.70
2018-03-26T11:20:16.630Z,90.70
2018-03-26T11:22:44.911Z,91.30
2018-03-26T11:25:12.429Z,91.30
2018-03-26T11:27:39.938Z,90.30
2018-03-26T11:30:08.212Z,89.40
2018-03-26T11:32:36.477Z,85.60
2018-03-26T11:35:03.987Z,85.60
2018-03-26T11:37:31.551Z,84.70
2018-03-26T11:39:59.072Z,85.60
2018-03-26T11:42:26.557Z,87.80
2018-03-26T11:44:54.104Z,88.40
2018-03-26T11:47:21.596Z,86.40
2018-03-26T11:49:49.174Z,85.90
2018-03-26T11:52:16.696Z,87.10
2018-03-26T11:54:44.191Z,87.40
2018-03-26T11:57:11.668Z,89.90
2018-03-26T11:59:39.920Z,85.60
2018-03-26T12:02:07.448Z,85.40
2018-03-26T12:04:34.932Z,85.50
2018-03-26T12:07:02.415Z,84.90
2018-03-26T12:09:29.916Z,87.30
2018-03-26T12:11:57.420Z,85.60
2018-03-26T12:14:24.928Z,86.60
2018-03-26T12:16:52.415Z,85.60
2018-03-26T12:19:19.899Z,85.30
2018-03-26T12:21:47.403Z,84.90
2018-03-26T12:24:26.788Z,84.40
2018-03-26T12:26:55.077Z,85.20
2018-03-26T12:29:35.079Z,83.20
2018-03-26T12:32:02.551Z,83.20
2018-03-26T12:34:42.041Z,82.60
2018-03-26T12:37:09.560Z,81.90
2018-03-26T12:39:37.079Z,83.10
2018-03-26T12:42:04.588Z,82.30
2018-03-26T12:44:44.778Z,83.10
2018-03-26T12:47:12.289Z,83.10
2018-03-26T12:49:39.812Z,82.60
2018-03-26T12:52:19.057Z,84.60
2018-03-26T12:54:46.559Z,85.30
2018-03-26T12:57:26.012Z,83.10
2018-03-26T12:59:53.507Z,84.20
2018-03-26T13:02:26.870Z,84.00
2018-03-26T13:04:54.380Z,85.40
2018-03-26T13:07:21.867Z,84.60
2018-03-26T13:09:49.390Z,83.30
2018-03-26T13:12:17.710Z,85.00
2018-03-26T13:14:45.238Z,85.10
2018-03-26T13:17:12.759Z,85.70
2018-03-26T13:19:41.288Z,84.20
2018-03-26T13:22:09.594Z,83.90
2018-03-26T13:24:37.102Z,83.80
2018-03-26T13:27:04.594Z,84.60
2018-03-26T13:29:32.106Z,84.60
2018-03-26T13:31:59.587Z,84.80
2018-03-26T13:34:27.836Z,86.60
2018-03-26T13:36:55.323Z,86.10
2018-03-26T13:39:23.587Z,84.90
2018-03-26T13:41:51.139Z,85.60
2018-03-26T13:44:18.648Z,85.40
2018-03-26T13:46:46.155Z,86.70
2018-03-26T13:49:13.655Z,85.70
2018-03-26T13:51:41.991Z,85.00
2018-03-26T13:54:09.476Z,84.60
2018-03-26T13:56:37.004Z,84.70
2018-03-26T13:59:04.488Z,83.50
2018-03-26T14:01:32.774Z,81.90
2018-03-26T14:04:00.296Z,82.00
2018-03-26T14:06:27.866Z,84.10
2018-03-26T14:09:07.249Z,83.20
2018-03-26T14:11:46.608Z,86.00
2018-03-26T14:14:25.858Z,81.60
2018-03-26T14:17:05.247Z,82.90
2018-03-26T14:19:32.742Z,84.60
2018-03-26T14:22:00.268Z,79.50
2018-03-26T14:24:27.780Z,79.90
2018-03-26T14:26:55.270Z,80.90
2018-03-26T14:29:22.781Z,80.70
2018-03-26T14:31:50.294Z,80.80
2018-03-26T14:34:17.818Z,78.80
2018-03-26T14:36:46.257Z,80.60
2018-03-26T14:39:13.747Z,80.60
2018-03-26T14:41:41.227Z,81.20
2018-03-26T14:44:09.488Z,76.40
2018-03-26T14:46:37.767Z,79.60
2018-03-26T14:49:06.014Z,77.70
2018-03-26T14:51:33.488Z,77.60
2018-03-26T14:54:00.971Z,75.70
2018-03-26T14:56:29.240Z,73.50
2018-03-26T14:58:57.483Z,74.20
2018-03-26T15:01:24.968Z,74.20
2018-03-26T15:03:59.701Z,74.40
2018-03-26T15:06:27.182Z,74.30
2018-03-26T15:08:54.668Z,76.10
2018-03-26T15:11:22.177Z,73.50
2018-03-26T15:13:49.692Z,72.00
2018-03-26T15:16:17.197Z,74.00
2018-03-26T15:18:44.715Z,71.50
2018-03-26T15:21:12.219Z,74.70
2018-03-26T15:23:39.753Z,72.90
2018-03-26T15:26:07.264Z,69.70
2018-03-26T15:28:34.770Z,70.40
2018-03-26T15:31:03.045Z,71.60
2018-03-26T15:33:31.311Z,70.10
2018-03-26T15:35:59.336Z,70.10
2018-03-26T15:38:26.850Z,72.40
2018-03-26T15:40:55.113Z,72.70
2018-03-26T15:43:22.612Z,72.80
2018-03-26T15:45:50.125Z,75.20
2018-03-26T15:48:17.666Z,73.30
2018-03-26T15:50:45.199Z,75.20
2018-03-26T15:53:12.716Z,73.00
2018-03-26T15:55:40.241Z,72.40
2018-03-26T15:58:07.740Z,73.70
2018-03-26T16:00:36.046Z,73.90
2018-03-26T16:03:09.186Z,73.90
2018-03-26T16:05:36.678Z,73.60
2018-03-26T16:08:04.207Z,73.70
2018-03-26T16:10:31.715Z,75.60
2018-03-26T16:12:59.241Z,73.50
2018-03-26T16:15:27.518Z,74.40
2018-03-26T16:17:55.815Z,74.30
2018-03-26T16:20:23.321Z,74.00
2018-03-26T16:22:51.667Z,74.80
2018-03-26T16:25:19.152Z,74.90
2018-03-26T16:27:46.632Z,73.40
2018-03-26T16:30:14.915Z,74.40
2018-03-26T16:32:43.166Z,74.70
2018-03-26T16:35:10.697Z,74.70
2018-03-26T16:37:38.231Z,74.20
2018-03-26T16:40:05.751Z,73.70
2018-03-26T16:42:43.950Z,75.50
2018-03-26T16:45:11.471Z,75.50
2018-03-26T16:47:38.958Z,76.80
2018-03-26T16:50:06.484Z,74.70
2018-03-26T16:52:34.010Z,74.20
2018-03-26T16:55:01.533Z,75.30
2018-03-26T16:57:29.047Z,75.90
2018-03-26T16:59:56.566Z,76.00
2018-03-26T17:02:24.091Z,74.50
2018-03-26T17:04:51.560Z,76.30
2018-03-26T17:07:19.039Z,77.50
2018-03-26T17:09:47.330Z,78.40
2018-03-26T17:12:14.875Z,78.10
2018-03-26T17:14:42.394Z,77.30
2018-03-26T17:17:09.891Z,78.70
2018-03-26T17:19:38.151Z,82.10
2018-03-26T17:22:05.685Z,82.00
2018-03-26T17:24:33.181Z,81.90
2018-03-26T17:27:00.697Z,82.20
2018-03-26T17:29:28.224Z,83.30
2018-03-26T17:31:55.762Z,82.20
2018-03-26T17:34:23.289Z,82.90
2018-03-26T17:36:50.766Z,83.30
2018-03-26T17:39:18.281Z,83.40
2018-03-26T17:41:45.781Z,83.30
2018-03-26T17:44:13.296Z,83.50
2018-03-26T17:46:40.786Z,83.90
2018-03-26T17:49:08.274Z,85.00
2018-03-26T17:51:35.795Z,86.10
2018-03-26T17:54:03.281Z,86.20
2018-03-26T17:56:30.818Z,85.10
2018-03-26T17:58:58.354Z,84.90
2018-03-26T18:01:25.835Z,85.10
2018-03-26T18:03:54.122Z,86.10
2018-03-26T18:06:21.650Z,86.10
2018-03-26T18:08:49.174Z,86.30
2018-03-26T18:11:16.667Z,86.90
2018-03-26T18:13:44.195Z,86.70
2018-03-26T18:16:11.719Z,87.30
2018-03-26T18:18:40.009Z,86.50
2018-03-26T18:21:07.715Z,86.50
2018-03-26T18:23:35.246Z,87.60
2018-03-26T18:26:03.659Z,87.70
2018-03-26T18:28:31.180Z,87.50
2018-03-26T18:30:58.811Z,87.60
2018-03-26T18:33:26.525Z,87.90
2018-03-26T18:35:54.062Z,88.20
2018-03-26T18:38:21.587Z,88.00
2018-03-26T18:40:49.088Z,88.50
2018-03-26T18:43:16.578Z,88.40
2018-03-26T18:45:44.104Z,88.50
2018-03-26T18:48:11.683Z,88.40
2018-03-26T18:50:39.214Z,89.60
2018-03-26T18:53:06.731Z,88.70
2018-03-26T18:55:34.238Z,89.00
2018-03-26T18:58:01.756Z,89.70
2018-03-26T19:00:29.297Z,89.90
2018-03-26T19:02:56.814Z,90.50
2018-03-26T19:05:24.350Z,90.50
2018-03-26T19:07:51.868Z,90.50
2018-03-26T19:10:19.372Z,90.90
2018-03-26T19:12:47.616Z,91.10
2018-03-26T19:15:15.148Z,91.10
2018-03-26T19:17:42.641Z,91.40
2018-03-26T19:20:10.152Z,91.40
2018-03-26T19:22:37.675Z,91.40
2018-03-26T19:25:05.197Z,91.40
2018-03-26T19:27:32.695Z,91.60
2018-03-26T19:30:00.948Z,92.30
2018-03-26T19:32:28.441Z,92.60
2018-03-26T19:34:55.977Z,92.40
2018-03-26T19:37:23.500Z,91.80
2018-03-26T19:39:50.991Z,92.00
2018-03-26T19:42:19.243Z,91.60
2018-03-26T19:44:46.766Z,91.60
2018-03-26T19:47:14.314Z,91.50
2018-03-26T19:49:41.820Z,91.80
2018-03-26T19:52:09.313Z,92.10
2018-03-26T19:54:37.596Z,92.40
2018-03-26T19:57:05.139Z,92.40
2018-03-26T19:59:32.682Z,92.60
2018-03-26T20:02:00.976Z,93.60
2018-03-26T20:04:29.254Z,93.90
2018-03-26T20:06:57.560Z,94.20
2018-03-26T20:09:25.072Z,94.30
2018-03-26T20:11:52.555Z,93.90
2018-03-26T20:14:20.045Z,94.40
2018-03-26T20:16:47.543Z,93.40
2018-03-26T20:19:15.826Z,92.70
2018-03-26T20:21:44.085Z,92.50
2018-03-26T20:24:11.597Z,92.50
2018-03-26T20:26:39.089Z,92.10
2018-03-26T20:29:08.146Z,93.10
2018-03-26T20:31:35.689Z,93.00
2018-03-26T20:34:03.191Z,92.80
2018-03-26T20:36:30.677Z,93.40
2018-03-26T20:38:58.196Z,93.40
2018-03-26T20:41:25.722Z,93.60
2018-03-26T20:43:53.232Z,94.20
2018-03-26T20:46:20.761Z,94.50
2018-03-26T20:48:48.276Z,94.30
2018-03-26T20:51:15.814Z,94.60
2018-03-26T20:56:17.279Z,94.90
2018-03-26T20:58:44.800Z,95.00
2018-03-26T21:01:12.308Z,95.20
2018-03-26T21:03:39.821Z,95.70
2018-03-26T21:06:07.392Z,95.70
2018-03-26T21:08:34.869Z,96.90
2018-03-26T21:11:02.357Z,96.40
2018-03-26T21:13:29.863Z,96.90
2018-03-26T21:15:57.380Z,96.50
2018-03-26T21:18:25.657Z,96.20
2018-03-26T21:20:53.151Z,96.20
2018-03-26T21:23:20.630Z,96.40
2018-03-26T21:25:48.145Z,96.30
2018-03-26T21:28:15.689Z,96.50
2018-03-26T21:30:43.173Z,96.30
2018-03-26T21:33:10.684Z,95.90
2018-03-26T21:35:38.184Z,95.90
2018-03-26T21:38:05.717Z,95.90
2018-03-26T21:40:33.208Z,96.50
2018-03-26T21:43:00.698Z,96.40
2018-03-26T21:45:28.181Z,96.50
2018-03-26T21:47:55.663Z,96.70
2018-03-26T21:50:23.166Z,97.00
2018-03-26T21:52:50.685Z,96.80
2018-03-26T21:55:18.178Z,97.40
2018-03-26T21:57:45.683Z,97.30
2018-03-26T22:00:21.083Z,98.30
2018-03-26T22:02:48.595Z,97.60
2018-03-26T22:05:16.081Z,96.70
2018-03-26T22:07:43.563Z,97.20
2018-03-26T22:10:11.087Z,96.90
2018-03-26T22:12:38.601Z,97.30
2018-03-26T22:15:06.249Z,97.10
2018-03-26T22:17:33.727Z,97.30
2018-03-26T22:20:01.211Z,97.20
2018-03-26T22:22:28.847Z,97.40
2018-03-26T22:24:56.333Z,97.80
2018-03-26T22:27:23.845Z,98.10
2018-03-26T22:29:52.090Z,97.70
2018-03-26T22:32:19.575Z,97.70
2018-03-26T22:34:47.111Z,97.70
2018-03-26T22:37:14.672Z,97.60
2018-03-26T22:39:42.234Z,97.70
2018-03-26T22:42:09.781Z,97.90
2018-03-26T22:44:37.325Z,98.20
2018-03-26T22:47:04.863Z,98.20
2018-03-26T22:49:32.422Z,98.90
2018-03-26T22:51:59.968Z,98.90
2018-03-26T22:54:27.511Z,98.90
2018-03-26T22:56:55.832Z,98.80
2018-03-26T22:59:23.374Z,98.70
2018-03-26T23:01:50.921Z,98.70
2018-03-26T23:04:18.476Z,98.80
2018-03-26T23:06:46.008Z,98.50
2018-03-26T23:09:13.561Z,98.60
2018-03-26T23:11:42.630Z,99.00
2018-03-26T23:14:10.174Z,99.00
2018-03-26T23:16:37.726Z,98.70
2018-03-26T23:19:05.261Z,98.90
2018-03-26T23:21:32.821Z,98.70
2018-03-26T23:24:00.363Z,98.80
2018-03-26T23:26:27.976Z,98.40
2018-03-26T23:28:55.514Z,98.40
2018-03-26T23:31:23.055Z,98.80
2018-03-26T23:33:50.589Z,98.50
2018-03-26T23:36:18.141Z,98.70
2018-03-26T23:38:46.481Z,98.60
2018-03-26T23:41:14.026Z,98.60
2018-03-26T23:43:41.569Z,99.00
2018-03-26T23:46:09.109Z,98.80
2018-03-26T23:48:36.647Z,98.80
2018-03-26T23:51:04.208Z,98.80
2018-03-26T23:53:31.742Z,99.00
2018-03-26T23:55:59.287Z,98.60
2018-03-26T23:58:26.829Z,99.20
